Mayport Ns (Adm David L. Mcdonald Field) Airport
KNRB : now visible

Airfield :











YOU CAN JOIN US ON...

 
LOGIN :

Register | Disclaimer

   EN    FR    IT 

 









Legend :    VFR   Marginal VFR   IFR   Intensive IFR   Very Intensive IFR
Visi :
Ceiling :
>= 8 km
>= 3000ft
5 to 8 km
1000 to 3000 ft
1500m to 5 km
500 to 1000 ft
800 to 1500m
200 to 500 ft
< 800m
< 200 ft
Symbols :   Thunderstorms  Fog  Heavy snow  Heavy precipitations  Wind > 20 kt






- Airport Elevation : 15 ft


KNRB - Mayport Ns (Adm David L. Mcdonald Field)

CURRENT METAR :
  • 281152Z 28007KT 10SM FEW045 16/12 A3002 RMK AO2 SLP166 70049 T01560117 10172 20156 53015

EXPIRED METARs :
  • 281052Z 27006KT 10SM CLR 16/12 A3000 RMK AO2 SLP158 T01560117
  • 281003Z 27007KT 10SM CLR 16/12 A2999 RMK AO2 T01560117
  • 280952Z AUTO 27006KT 10SM CLR 16/12 A2999 RMK AO2 SLP153 T01610117

TAF TAF KNRB
Valid from the 28 at 07:00 until the 29 at 07:00 UTC


2807/2907 25005KT 9999 FEW040 SCT250 510033 QNH2990INS
BECMG 2817/2819 27008G13KT 9999 SKC 500000 QNH2992INS
BECMG 2823/2901 VRB06KT 9999 SKC QNH3001INS T13/2811Z T24/2820Z FN00240
KZJX FIR / North America



MET'MAP, your aeronautical weather chart ! - Copyright ORBIFLY December 2007 - Disclaimer

ORBIFLY MET'MAP TEAM :

Programming & Development : Alexandra Zaïnal
Original concept : Baudouin d'Aumeries
Technical & hardware support : Manuel Goepfert
Assistance : Marc-Olivier Méhu




SOURCES & CREDITS :

   NOAA       Earth
Advisory